createdAt,value
2019-04-23T00:01:29.927Z,15.57
2019-04-23T00:03:58.479Z,14.53
2019-04-23T00:06:40.642Z,15.60
2019-04-23T00:14:12.210Z,14.87
2019-04-23T00:16:40.879Z,16.27
2019-04-23T00:19:11.701Z,15.63
2019-04-23T00:21:52.126Z,15.07
2019-04-23T00:27:23.964Z,14.93
2019-04-23T00:29:53.501Z,15.07
2019-04-23T00:32:23.354Z,15.33
2019-04-23T00:35:04.267Z,15.83
2019-04-23T00:37:25.481Z,15.13
2019-04-23T00:42:29.598Z,13.50
2019-04-23T00:44:51.771Z,14.63
2019-04-23T00:47:28.310Z,13.63
2019-04-23T00:49:58.603Z,14.87
2019-04-23T00:52:26.591Z,14.83
2019-04-23T00:55:07.533Z,14.47
2019-04-23T00:57:29.309Z,13.70
2019-04-23T01:00:06.440Z,13.93
2019-04-23T01:02:31.200Z,13.47
2019-04-23T01:05:11.733Z,13.07
2019-04-23T01:07:32.070Z,13.60
2019-04-23T01:10:10.271Z,12.83
2019-04-23T01:12:52.909Z,12.93
2019-04-23T01:15:11.489Z,13.00
2019-04-23T01:20:14.831Z,12.80
2019-04-23T01:22:27.465Z,13.40
2019-04-23T01:25:09.767Z,13.40
2019-04-23T01:28:03.962Z,14.47
2019-04-23T01:30:32.874Z,13.70
2019-04-23T01:33:09.238Z,13.27
2019-04-23T01:35:41.674Z,14.20
2019-04-23T01:38:11.595Z,13.67
2019-04-23T01:40:40.678Z,13.90
2019-04-23T01:43:16.464Z,13.87
2019-04-23T01:45:44.401Z,13.47
2019-04-23T01:48:18.472Z,13.87
2019-04-23T01:50:53.128Z,14.53
2019-04-23T01:53:27.302Z,14.70
2019-04-23T01:56:01.264Z,14.63
2019-04-23T02:01:00.754Z,14.33
2019-04-23T02:06:00.027Z,13.40
2019-04-23T02:08:32.169Z,13.47
2019-04-23T02:11:07.970Z,13.13
2019-04-23T02:13:38.793Z,14.47
2019-04-23T02:16:05.188Z,14.20
2019-04-23T02:18:38.822Z,14.47
2019-04-23T02:21:10.620Z,15.13
2019-04-23T02:23:57.364Z,14.50
2019-04-23T02:26:21.684Z,14.00
2019-04-23T02:29:14.661Z,13.70
2019-04-23T02:31:45.262Z,14.07
2019-04-23T02:34:01.175Z,14.50
2019-04-23T02:36:32.643Z,14.53
2019-04-23T02:38:58.260Z,13.70
2019-04-23T02:44:11.505Z,13.83
2019-04-23T02:46:27.364Z,13.80
2019-04-23T02:54:16.419Z,13.60
2019-04-23T03:02:05.735Z,14.90
2019-04-23T03:04:21.974Z,14.90
2019-04-23T03:06:48.134Z,14.93
2019-04-23T03:09:23.658Z,14.97
2019-04-23T03:11:47.907Z,15.23
2019-04-23T03:14:24.204Z,15.17
2019-04-23T03:16:56.318Z,15.77
2019-04-23T03:19:35.178Z,15.67
2019-04-23T03:22:01.596Z,15.83
2019-04-23T03:29:49.092Z,17.40
2019-04-23T03:32:45.758Z,16.03
2019-04-23T03:37:23.470Z,16.57
2019-04-23T03:40:02.146Z,17.67
2019-04-23T03:42:17.330Z,17.23
2019-04-23T03:47:24.190Z,17.23
2019-04-23T03:49:55.370Z,17.47
2019-04-23T03:52:27.827Z,16.93
2019-04-23T03:57:24.884Z,17.27
2019-04-23T04:00:03.974Z,17.87
2019-04-23T04:02:43.991Z,16.77
2019-04-23T04:04:58.467Z,16.37
2019-04-23T04:07:43.839Z,17.93
2019-04-23T04:10:05.317Z,18.07
2019-04-23T04:15:05.130Z,18.33
2019-04-23T04:20:05.133Z,17.53
2019-04-23T04:25:06.992Z,17.37
2019-04-23T04:27:45.850Z,18.03
2019-04-23T04:30:10.741Z,17.37
2019-04-23T04:32:44.687Z,16.70
2019-04-23T04:35:24.945Z,16.93
2019-04-23T04:38:06.184Z,17.20
2019-04-23T04:40:23.360Z,16.63
2019-04-23T04:43:02.148Z,17.53
2019-04-23T04:45:43.232Z,16.07
2019-04-23T04:47:44.485Z,17.10
2019-04-23T04:50:18.832Z,16.67
2019-04-23T04:53:06.163Z,17.10
2019-04-23T04:55:21.280Z,17.30
2019-04-23T04:58:07.450Z,16.67
2019-04-23T05:00:32.597Z,16.33
2019-04-23T05:03:18.039Z,16.40
2019-04-23T05:05:55.292Z,16.00
2019-04-23T05:07:54.794Z,15.13
2019-04-23T05:13:26.340Z,15.10
2019-04-23T05:15:28.231Z,14.43
2019-04-23T05:20:58.494Z,14.77
2019-04-23T05:23:23.513Z,14.97
2019-04-23T05:25:40.061Z,14.27
2019-04-23T05:28:14.438Z,13.83
2019-04-23T05:33:17.961Z,14.43
2019-04-23T05:36:06.001Z,13.57
2019-04-23T05:38:38.031Z,12.73
2019-04-23T05:40:59.219Z,13.07
2019-04-23T05:43:19.362Z,12.63
2019-04-23T05:46:16.022Z,14.20
2019-04-23T05:48:25.591Z,12.47
2019-04-23T05:53:27.580Z,12.57
2019-04-23T05:56:01.601Z,12.00
2019-04-23T06:01:49.563Z,12.60
2019-04-23T06:04:10.481Z,12.80
2019-04-23T06:06:45.465Z,11.73
2019-04-23T06:09:12.746Z,12.30
2019-04-23T06:11:45.719Z,12.67
2019-04-23T06:14:13.045Z,11.37
2019-04-23T06:19:14.302Z,11.77
2019-04-23T06:21:54.986Z,12.27
2019-04-23T06:26:45.816Z,11.57
2019-04-23T06:29:20.430Z,11.17
2019-04-23T06:31:50.712Z,11.50
2019-04-23T06:34:21.657Z,11.20
2019-04-23T06:36:51.429Z,11.40
2019-04-23T06:39:26.002Z,10.83
2019-04-23T06:41:55.147Z,11.53
2019-04-23T06:44:25.613Z,11.40
2019-04-23T06:47:05.729Z,11.37
2019-04-23T06:49:30.474Z,10.80
2019-04-23T06:52:11.858Z,11.87
2019-04-23T06:54:36.118Z,10.83
2019-04-23T06:57:14.098Z,11.30
2019-04-23T06:59:32.352Z,11.27
2019-04-23T07:02:14.995Z,10.13
2019-04-23T07:04:41.021Z,11.03
2019-04-23T07:07:31.511Z,11.30
2019-04-23T07:09:35.239Z,11.27
2019-04-23T07:12:08.677Z,10.40
2019-04-23T07:14:51.445Z,10.60
2019-04-23T07:17:11.336Z,10.60
2019-04-23T07:19:42.238Z,10.80
2019-04-23T07:22:16.396Z,10.70
2019-04-23T07:24:47.617Z,10.87
2019-04-23T07:27:19.090Z,10.20
2019-04-23T07:29:56.829Z,10.60
2019-04-23T07:32:15.194Z,9.63
2019-04-23T07:35:00.915Z,10.13
2019-04-23T07:37:24.066Z,9.47
2019-04-23T07:40:17.724Z,9.33
2019-04-23T07:42:55.085Z,9.17
2019-04-23T07:45:24.039Z,9.47
2019-04-23T07:48:10.881Z,9.60
2019-04-23T08:05:43.714Z,8.73
2019-04-23T08:08:15.135Z,9.87
2019-04-23T08:11:14.391Z,9.80
2019-04-23T08:13:32.339Z,8.98
2019-04-23T08:15:55.102Z,9.00
2019-04-23T08:18:29.942Z,9.73
2019-04-23T08:20:55.641Z,9.93
2019-04-23T08:23:50.708Z,9.33
2019-04-23T08:26:34.784Z,9.33
2019-04-23T08:29:12.303Z,9.20
2019-04-23T08:31:43.911Z,9.63
2019-04-23T08:36:50.109Z,9.77
2019-04-23T08:39:18.279Z,9.48
2019-04-23T08:42:09.512Z,9.23
2019-04-23T08:44:27.300Z,9.83
2019-04-23T08:47:02.662Z,9.10
2019-04-23T08:49:47.019Z,9.93
2019-04-23T08:52:14.750Z,9.77
2019-04-23T08:54:49.835Z,10.00
2019-04-23T08:57:17.146Z,8.93
2019-04-23T09:02:24.001Z,10.65
2019-04-23T09:04:49.968Z,10.50
2019-04-23T09:09:53.714Z,9.63
2019-04-23T09:14:52.422Z,9.80
2019-04-23T09:20:07.117Z,10.27
2019-04-23T09:24:57.455Z,10.10
2019-04-23T09:27:31.202Z,10.17
2019-04-23T09:35:15.025Z,10.90
2019-04-23T09:40:28.532Z,9.93
2019-04-23T09:43:00.535Z,10.70
2019-04-23T09:45:51.567Z,10.07
2019-04-23T09:48:29.897Z,10.53
2019-04-23T09:50:51.736Z,10.03
2019-04-23T09:55:41.868Z,10.93
2019-04-23T09:58:15.462Z,10.23
2019-04-23T10:00:54.493Z,9.90
2019-04-23T10:03:16.657Z,9.90
2019-04-23T10:05:43.714Z,9.45
2019-04-23T10:08:15.328Z,10.18
2019-04-23T10:10:34.384Z,10.43
2019-04-23T10:13:04.348Z,10.40
2019-04-23T10:15:39.039Z,11.43
2019-04-23T10:18:05.080Z,11.57
2019-04-23T10:20:36.296Z,10.90
2019-04-23T10:23:06.211Z,10.80
2019-04-23T10:25:36.096Z,11.10
2019-04-23T10:28:11.374Z,11.25
2019-04-23T10:30:42.617Z,11.05
2019-04-23T10:33:13.832Z,10.53
2019-04-23T10:35:53.124Z,10.43
2019-04-23T10:38:18.635Z,10.65
2019-04-23T10:40:50.119Z,11.20
2019-04-23T10:43:17.572Z,11.33
2019-04-23T10:46:08.023Z,11.22
2019-04-23T10:49:04.535Z,12.20
2019-04-23T10:51:40.968Z,11.50
2019-04-23T10:54:24.303Z,10.75
2019-04-23T10:59:21.531Z,11.20
2019-04-23T11:01:53.043Z,11.78
2019-04-23T11:04:34.959Z,11.78
2019-04-23T11:06:50.365Z,11.85
2019-04-23T11:09:38.637Z,13.53
2019-04-23T11:12:01.477Z,12.35
2019-04-23T11:14:30.936Z,12.53
2019-04-23T11:17:07.132Z,11.50
2019-04-23T11:19:39.974Z,11.60
2019-04-23T11:22:24.775Z,12.20
2019-04-23T11:24:54.862Z,12.63
2019-04-23T11:27:05.431Z,12.90
2019-04-23T11:35:03.250Z,12.67
2019-04-23T11:37:24.979Z,13.40
2019-04-23T11:39:55.726Z,13.83
2019-04-23T11:44:49.880Z,13.40
2019-04-23T11:47:32.728Z,14.13
2019-04-23T11:49:53.486Z,13.93
2019-04-23T11:52:34.495Z,13.17
2019-04-23T11:54:53.057Z,13.07
2019-04-23T11:57:40.803Z,13.23
2019-04-23T11:59:53.364Z,13.50
2019-04-23T12:02:46.671Z,13.60
2019-04-23T12:05:26.844Z,12.83
2019-04-23T12:07:59.125Z,13.23
2019-04-23T12:13:03.222Z,13.37
2019-04-23T12:15:37.607Z,12.77
2019-04-23T12:18:28.694Z,13.37
2019-04-23T12:23:28.121Z,13.93
2019-04-23T12:25:45.824Z,13.83
2019-04-23T12:28:16.528Z,12.77
2019-04-23T12:30:45.143Z,14.30
2019-04-23T12:33:20.751Z,13.63
2019-04-23T12:35:40.425Z,13.40
2019-04-23T12:38:22.071Z,13.90
2019-04-23T12:40:49.264Z,13.70
2019-04-23T12:43:25.685Z,14.40
2019-04-23T12:45:47.372Z,14.00
2019-04-23T12:53:32.217Z,13.97
2019-04-23T12:56:16.961Z,14.07
2019-04-23T12:58:28.973Z,13.93
2019-04-23T13:00:57.945Z,14.70
2019-04-23T13:03:33.689Z,13.60
2019-04-23T13:06:06.483Z,14.70
2019-04-23T13:08:41.472Z,14.67
2019-04-23T13:11:07.685Z,14.97
2019-04-23T13:16:18.068Z,14.97
2019-04-23T13:21:30.095Z,15.27
2019-04-23T13:23:43.860Z,15.60
2019-04-23T13:26:11.766Z,14.23
2019-04-23T13:29:13.552Z,14.23
2019-04-23T13:44:08.503Z,14.27
2019-04-23T13:46:46.652Z,14.17
2019-04-23T13:49:03.192Z,13.63
2019-04-23T13:51:32.706Z,14.87
2019-04-23T13:54:15.781Z,13.87
2019-04-23T13:57:03.997Z,14.13
2019-04-23T13:59:16.256Z,15.13
2019-04-23T14:01:54.738Z,14.63
2019-04-23T14:04:33.107Z,14.53
2019-04-23T14:06:50.622Z,14.60
2019-04-23T14:09:31.465Z,16.77
2019-04-23T14:11:48.908Z,16.07
2019-04-23T14:14:43.731Z,15.87
2019-04-23T14:17:02.588Z,16.27
2019-04-23T14:19:26.066Z,16.67
2019-04-23T14:22:03.337Z,16.23
2019-04-23T14:24:38.121Z,16.40
2019-04-23T14:27:07.325Z,15.27
2019-04-23T14:29:41.453Z,15.57
2019-04-23T14:32:08.792Z,16.30
2019-04-23T14:34:48.391Z,16.30
2019-04-23T14:37:11.877Z,15.83
2019-04-23T14:39:40.742Z,15.33
2019-04-23T14:42:21.391Z,16.27
2019-04-23T14:44:43.765Z,15.73
2019-04-23T14:47:24.410Z,16.70
2019-04-23T14:50:14.993Z,16.43
2019-04-23T14:52:31.020Z,16.70
2019-04-23T14:55:37.913Z,15.30
2019-04-23T14:57:45.449Z,15.67
2019-04-23T15:00:01.879Z,14.93
2019-04-23T15:02:36.334Z,14.40
2019-04-23T15:07:33.843Z,15.43
2019-04-23T15:10:24.506Z,16.10
2019-04-23T15:12:41.782Z,14.33
2019-04-23T15:17:40.136Z,14.80
2019-04-23T15:20:20.007Z,14.47
2019-04-23T15:23:02.734Z,14.70
2019-04-23T15:25:26.381Z,14.77
2019-04-23T15:28:05.878Z,14.73
2019-04-23T15:30:15.704Z,14.70
2019-04-23T15:33:07.670Z,15.30
2019-04-23T15:35:45.900Z,14.73
2019-04-23T15:38:27.222Z,14.67
2019-04-23T15:40:42.088Z,15.00
2019-04-23T15:43:24.853Z,14.87
2019-04-23T15:46:11.632Z,16.00
2019-04-23T15:48:58.053Z,14.83
2019-04-23T15:53:52.231Z,15.50
2019-04-23T15:56:26.867Z,15.23
2019-04-23T15:59:04.304Z,13.97
2019-04-23T16:03:27.475Z,14.70
2019-04-23T16:05:57.419Z,15.03
2019-04-23T16:14:47.899Z,13.57
2019-04-23T16:17:04.148Z,13.03
2019-04-23T16:19:36.674Z,13.47
2019-04-23T16:24:26.658Z,12.07
2019-04-23T16:27:09.329Z,12.30
2019-04-23T16:29:44.459Z,11.70
2019-04-23T16:32:14.820Z,11.57
2019-04-23T16:34:34.080Z,12.40
2019-04-23T16:37:08.208Z,11.33
2019-04-23T16:39:39.460Z,12.57
2019-04-23T16:42:17.163Z,12.20
2019-04-23T16:45:06.335Z,12.40
2019-04-23T16:49:51.089Z,12.93
2019-04-23T16:52:17.732Z,12.00
2019-04-23T17:00:06.686Z,10.43
2019-04-23T17:02:29.675Z,11.10
2019-04-23T17:04:54.408Z,10.17
2019-04-23T17:07:20.431Z,10.47
2019-04-23T17:10:16.077Z,10.20
2019-04-23T17:12:17.549Z,9.77
2019-04-23T17:15:03.344Z,9.60
2019-04-23T17:17:25.001Z,9.87
2019-04-23T17:20:10.138Z,9.50
2019-04-23T17:22:33.924Z,8.60
2019-04-23T17:27:39.068Z,8.77
2019-04-23T17:30:13.163Z,8.03
2019-04-23T17:32:36.197Z,8.70
2019-04-23T17:35:17.828Z,8.97
2019-04-23T17:38:16.679Z,9.47
2019-04-23T17:40:53.650Z,8.73
2019-04-23T17:43:06.329Z,8.73
2019-04-23T17:45:48.998Z,8.90
2019-04-23T17:48:34.991Z,9.47
2019-04-23T17:53:59.886Z,9.80
2019-04-23T17:59:22.892Z,9.80
2019-04-23T18:02:30.457Z,10.23
2019-04-23T18:04:45.251Z,10.03
2019-04-23T18:07:19.280Z,9.80
2019-04-23T18:09:45.584Z,9.37
2019-04-23T18:12:25.463Z,9.67
2019-04-23T18:14:42.208Z,9.50
2019-04-23T18:17:24.260Z,8.83
2019-04-23T18:20:12.447Z,9.20
2019-04-23T18:25:17.084Z,8.83
2019-04-23T18:27:48.319Z,8.90
2019-04-23T18:35:29.835Z,8.47
2019-04-23T18:40:54.713Z,9.70
2019-04-23T18:43:20.171Z,8.07
2019-04-23T18:45:46.781Z,7.43
2019-04-23T18:56:12.966Z,6.43
2019-04-23T18:58:52.190Z,6.90
2019-04-23T19:03:59.175Z,7.20
2019-04-23T19:09:13.976Z,6.60
2019-04-23T19:11:58.175Z,6.40
2019-04-23T19:14:32.182Z,5.63
2019-04-23T19:17:26.227Z,6.07
2019-04-23T19:19:29.658Z,5.80
2019-04-23T19:27:10.829Z,5.07
2019-04-23T19:29:39.603Z,4.93
2019-04-23T19:37:05.734Z,5.20
2019-04-23T19:39:38.447Z,5.23
2019-04-23T19:42:15.392Z,5.50
2019-04-23T19:44:43.887Z,5.37
2019-04-23T19:49:45.334Z,5.40
2019-04-23T19:52:18.757Z,5.30
2019-04-23T19:54:55.331Z,4.93
2019-04-23T19:57:19.915Z,5.50
2019-04-23T19:59:51.120Z,5.83
2019-04-23T20:02:33.861Z,5.90
2019-04-23T20:05:05.679Z,5.70
2019-04-23T20:12:42.868Z,6.10
2019-04-23T20:14:56.502Z,6.20
2019-04-23T20:18:34.038Z,6.23
2019-04-23T20:19:56.764Z,6.70
2019-04-23T20:22:42.187Z,7.03
2019-04-23T20:25:30.074Z,7.07
2019-04-23T20:27:33.723Z,7.53
2019-04-23T20:35:27.475Z,7.60
2019-04-23T20:40:45.414Z,8.03
2019-04-23T20:42:58.744Z,7.93
2019-04-23T20:45:39.628Z,8.33
2019-04-23T20:48:08.871Z,8.47
2019-04-23T20:50:39.765Z,7.97
2019-04-23T20:53:09.222Z,8.70
2019-04-23T20:58:14.153Z,8.50
2019-04-23T21:00:56.510Z,8.70
2019-04-23T21:03:37.588Z,8.90
2019-04-23T21:05:50.549Z,9.10
2019-04-23T21:08:50.794Z,9.03
2019-04-23T21:10:51.009Z,9.03
2019-04-23T21:13:43.503Z,9.10
2019-04-23T21:16:15.295Z,9.37
2019-04-23T21:20:56.221Z,8.77
2019-04-23T21:23:36.065Z,9.57
2019-04-23T21:26:00.166Z,9.67
2019-04-23T21:33:56.898Z,10.73
2019-04-23T21:36:18.827Z,10.47
2019-04-23T21:41:52.571Z,10.73
2019-04-23T21:46:47.990Z,11.87
2019-04-23T21:52:02.583Z,12.03
2019-04-23T21:54:23.156Z,12.67
2019-04-23T21:56:48.599Z,12.00
2019-04-23T21:59:10.115Z,12.67
2019-04-23T22:06:56.052Z,13.63
2019-04-23T22:09:31.617Z,13.90
2019-04-23T22:19:31.783Z,15.03
2019-04-23T22:22:22.165Z,14.47
2019-04-23T22:24:32.183Z,15.30
2019-04-23T22:27:05.872Z,16.67
2019-04-23T22:29:51.947Z,16.10
2019-04-23T22:32:08.321Z,16.70
2019-04-23T22:39:45.807Z,16.17
2019-04-23T22:42:36.327Z,16.50
2019-04-23T22:47:13.585Z,17.40
2019-04-23T22:49:53.208Z,18.73
2019-04-23T22:52:23.094Z,17.73
2019-04-23T22:57:16.990Z,18.63
2019-04-23T23:00:12.979Z,18.87
2019-04-23T23:07:50.725Z,19.13
2019-04-23T23:10:12.869Z,18.93
2019-04-23T23:12:51.359Z,19.17
2019-04-23T23:15:19.072Z,20.00
2019-04-23T23:17:50.899Z,19.60
2019-04-23T23:20:23.919Z,20.53
2019-04-23T23:23:07.354Z,19.63
2019-04-23T23:27:53.719Z,22.03
2019-04-23T23:30:19.500Z,21.60
2019-04-23T23:35:21.864Z,21.30
2019-04-23T23:37:49.937Z,21.43
2019-04-23T23:40:38.667Z,21.10
2019-04-23T23:43:08.714Z,22.10
2019-04-23T23:45:31.569Z,22.23
2019-04-23T23:47:59.391Z,21.63
2019-04-23T23:53:05.925Z,22.00
2019-04-23T23:55:33.576Z,21.97
2019-04-23T23:58:16.200Z,22.23
